Location:  
MeteoStar


2MeteoStar Phoenix Sky Harbor International Airport FORECAST
Forecast For: Phoenix, Arizona
Mostly Cloudy
 
Currently: Phoenix Sky Harbor International Airport 22:51 GMT
Weather:Mostly Cloudy Humidity:44%
Temperature:21 ° C Wind:N 7 kph
Dew Point:8 ° C Pressure:1019 mb
Feels Like:21 ° C Visibility:16 km
Print Legend
24 Hour Weather Trace
Regional Observations
Daily Climate Plot
Monthly Climate Plot

Regional Radar Image
National Radar Image
Regional Satellite Image
National Satellite Image
Short Range Forecast Trace
Long Range Forecast Trace
NWS Forecast Discussion
16 Day Forecast
Phoenix,AZ 01/17/2019 23:40 GMT
CLICK FOR LOOP




METAR:KPHX 172251Z VRB04KT 10SM SCT200 SCT220 BKN250 21/08 A3011 RMK AO2 SLP189 T02060083 =
TAF:

TAFPHX
TAF
KPHX 172320Z 1800/1906 24006KT P6SM FEW100 BKN200
FM180600 14004KT P6SM SCT040 BKN060 BKN150
FM181500 28005KT P6SM FEW040 BKN250
FM190500 08005KT P6SM SKC =

NWS Forecast for:
Greater Phoenix Area